createdAt,value
2018-09-11T00:00:24.785Z,5.00
2018-09-11T00:02:53.685Z,4.80
2018-09-11T00:05:22.469Z,4.73
2018-09-11T00:07:51.221Z,5.07
2018-09-11T00:10:20.013Z,5.40
2018-09-11T00:12:48.860Z,5.20
2018-09-11T00:15:17.620Z,4.90
2018-09-11T00:17:46.398Z,5.37
2018-09-11T00:20:15.170Z,5.40
2018-09-11T00:22:43.940Z,5.07
2018-09-11T00:25:12.676Z,5.20
2018-09-11T00:27:41.445Z,5.03
2018-09-11T00:30:10.204Z,5.40
2018-09-11T00:32:38.985Z,5.10
2018-09-11T00:35:07.806Z,5.40
2018-09-11T00:37:36.620Z,4.93
2018-09-11T00:40:05.495Z,5.17
2018-09-11T00:42:34.291Z,5.70
2018-09-11T00:45:03.052Z,5.20
2018-09-11T00:47:31.798Z,5.10
2018-09-11T00:50:00.592Z,4.63
2018-09-11T00:52:29.337Z,5.60
2018-09-11T00:54:58.349Z,5.70
2018-09-11T00:57:27.090Z,5.80
2018-09-11T00:59:55.887Z,5.90
2018-09-11T01:02:24.648Z,5.23
2018-09-11T01:04:53.429Z,5.77
2018-09-11T01:07:22.181Z,5.63
2018-09-11T01:09:50.917Z,5.30
2018-09-11T01:12:19.814Z,6.20
2018-09-11T01:14:48.554Z,5.20
2018-09-11T01:17:17.316Z,5.43
2018-09-11T01:19:46.075Z,5.93
2018-09-11T01:22:14.919Z,5.90
2018-09-11T01:24:43.652Z,6.40
2018-09-11T01:27:12.476Z,5.13
2018-09-11T01:29:41.226Z,5.63
2018-09-11T01:32:10.076Z,5.43
2018-09-11T01:34:38.805Z,6.37
2018-09-11T01:37:07.704Z,5.90
2018-09-11T01:39:36.472Z,6.17
2018-09-11T01:42:05.324Z,5.83
2018-09-11T01:44:34.056Z,5.90
2018-09-11T01:47:02.882Z,5.77
2018-09-11T01:49:31.709Z,5.73
2018-09-11T01:52:00.497Z,6.97
2018-09-11T01:54:29.249Z,5.77
2018-09-11T01:56:58.168Z,6.33
2018-09-11T01:59:26.930Z,6.33
2018-09-11T02:01:55.785Z,6.27
2018-09-11T02:04:24.522Z,6.03
2018-09-11T02:06:53.334Z,5.97
2018-09-11T02:09:22.093Z,6.17
2018-09-11T02:11:50.837Z,6.00
2018-09-11T02:14:19.599Z,6.57
2018-09-11T02:16:48.340Z,6.23
2018-09-11T02:19:17.081Z,5.77
2018-09-11T02:21:45.865Z,6.50
2018-09-11T02:24:14.617Z,6.40
2018-09-11T02:26:43.387Z,6.30
2018-09-11T02:29:12.141Z,5.87
2018-09-11T02:31:40.898Z,6.03
2018-09-11T02:34:09.704Z,6.20
2018-09-11T02:36:38.454Z,6.27
2018-09-11T02:39:10.096Z,6.63
2018-09-11T02:41:38.945Z,6.03
2018-09-11T02:44:08.244Z,8.07
2018-09-11T02:46:37.029Z,6.73
2018-09-11T02:49:05.797Z,6.63
2018-09-11T02:51:34.874Z,7.10
2018-09-11T02:54:03.733Z,6.60
2018-09-11T02:56:32.701Z,6.70
2018-09-11T02:59:01.479Z,6.87
2018-09-11T03:01:30.245Z,6.43
2018-09-11T03:03:58.985Z,7.83
2018-09-11T03:06:27.788Z,6.77
2018-09-11T03:08:56.509Z,6.60
2018-09-11T03:11:25.280Z,7.50
2018-09-11T03:13:54.038Z,6.50
2018-09-11T03:16:22.941Z,7.07
2018-09-11T03:18:51.694Z,7.27
2018-09-11T03:21:20.611Z,6.90
2018-09-11T03:23:49.344Z,6.93
2018-09-11T03:26:18.148Z,7.50
2018-09-11T03:28:46.884Z,7.07
2018-09-11T03:37:12.774Z,7.00
2018-09-11T03:39:41.539Z,7.40
2018-09-11T03:42:10.284Z,6.40
2018-09-11T03:44:39.071Z,6.83
2018-09-11T03:50:01.302Z,6.27
2018-09-11T03:52:30.069Z,6.57
2018-09-11T03:54:58.841Z,7.30
2018-09-11T03:57:27.572Z,7.20
2018-09-11T03:59:56.360Z,6.90
2018-09-11T04:02:25.131Z,7.93
2018-09-11T04:04:54.111Z,7.50
2018-09-11T04:07:22.853Z,7.10
2018-09-11T04:09:51.609Z,7.40
2018-09-11T04:12:20.372Z,8.17
2018-09-11T04:14:49.109Z,6.60
2018-09-11T04:17:17.887Z,8.03
2018-09-11T04:19:46.632Z,7.97
2018-09-11T04:22:15.449Z,7.50
2018-09-11T04:24:44.192Z,7.53
2018-09-11T04:27:12.974Z,8.00
2018-09-11T04:29:41.721Z,8.03
2018-09-11T04:32:10.544Z,7.17
2018-09-11T04:34:39.330Z,7.37
2018-09-11T04:37:08.117Z,8.07
2018-09-11T04:39:36.872Z,7.37
2018-09-11T04:42:05.672Z,7.20
2018-09-11T04:47:27.381Z,7.70
2018-09-11T04:49:56.142Z,6.83
2018-09-11T04:52:24.943Z,7.57
2018-09-11T04:54:53.689Z,7.43
2018-09-11T04:57:22.442Z,7.80
2018-09-11T04:59:51.189Z,7.17
2018-09-11T05:02:19.953Z,7.63
2018-09-11T05:04:48.689Z,8.50
2018-09-11T05:07:17.448Z,8.17
2018-09-11T05:09:46.288Z,7.80
2018-09-11T05:12:15.004Z,8.07
2018-09-11T05:14:43.880Z,7.70
2018-09-11T05:17:12.730Z,7.80
2018-09-11T05:19:41.565Z,7.97
2018-09-11T05:22:10.332Z,8.30
2018-09-11T05:24:39.153Z,8.50
2018-09-11T05:27:07.930Z,8.80
2018-09-11T05:29:36.904Z,8.03
2018-09-11T05:32:05.701Z,8.73
2018-09-11T05:34:34.465Z,8.20
2018-09-11T05:37:03.251Z,8.33
2018-09-11T05:39:32.089Z,7.60
2018-09-11T05:42:00.867Z,8.30
2018-09-11T05:44:29.755Z,8.07
2018-09-11T05:46:58.614Z,7.87
2018-09-11T05:49:27.541Z,8.80
2018-09-11T05:51:56.332Z,8.67
2018-09-11T05:54:25.143Z,8.33
2018-09-11T05:56:54.024Z,8.53
2018-09-11T05:59:22.814Z,8.40
2018-09-11T06:01:51.636Z,8.40
2018-09-11T06:04:20.380Z,8.30
2018-09-11T06:06:49.164Z,8.33
2018-09-11T06:09:17.961Z,8.53
2018-09-11T06:11:46.735Z,7.40
2018-09-11T06:14:15.669Z,9.07
2018-09-11T06:16:45.025Z,7.90
2018-09-11T06:19:13.841Z,8.03
2018-09-11T06:21:42.608Z,8.33
2018-09-11T06:24:11.383Z,8.17
2018-09-11T06:26:40.204Z,9.00
2018-09-11T06:29:09.041Z,8.83
2018-09-11T06:31:38.070Z,8.87
2018-09-11T06:34:06.876Z,9.00
2018-09-11T06:36:35.725Z,8.13
2018-09-11T06:39:05.677Z,9.47
2018-09-11T06:41:34.470Z,8.40
2018-09-11T06:44:03.342Z,8.53
2018-09-11T06:46:32.528Z,8.83
2018-09-11T06:49:01.613Z,8.27
2018-09-11T06:51:30.821Z,8.10
2018-09-11T06:53:59.590Z,7.73
2018-09-11T06:56:28.343Z,8.53
2018-09-11T06:58:57.144Z,7.30
2018-09-11T07:01:26.038Z,7.53
2018-09-11T07:03:54.792Z,7.47
2018-09-11T07:06:23.593Z,7.77
2018-09-11T07:08:52.412Z,7.93
2018-09-11T07:11:21.444Z,7.43
2018-09-11T07:13:50.335Z,7.37
2018-09-11T07:16:19.148Z,7.13
2018-09-11T07:18:47.931Z,7.07
2018-09-11T07:21:16.713Z,7.17
2018-09-11T07:23:45.571Z,6.07
2018-09-11T07:26:14.351Z,6.13
2018-09-11T07:28:43.196Z,5.80
2018-09-11T07:31:11.965Z,5.53
2018-09-11T07:33:56.966Z,5.47
2018-09-11T07:36:25.765Z,5.10
2018-09-11T07:38:54.549Z,4.20
2018-09-11T07:41:23.324Z,4.33
2018-09-11T07:43:52.216Z,4.20
2018-09-11T08:00:57.748Z,2.90
2018-09-11T08:03:26.512Z,3.10
2018-09-11T08:05:55.253Z,3.33
2018-09-11T08:08:24.000Z,3.00
2018-09-11T08:10:52.807Z,3.30
2018-09-11T08:16:14.157Z,3.70
2018-09-11T08:18:42.891Z,3.50
2018-09-11T08:21:11.821Z,2.93
2018-09-11T08:23:40.584Z,3.10
2018-09-11T08:32:07.004Z,4.30
2018-09-11T08:34:35.813Z,3.83
2018-09-11T08:37:04.698Z,3.90
2018-09-11T08:39:40.936Z,2.80
2018-09-11T08:42:09.740Z,3.60
2018-09-11T08:44:38.745Z,2.90
2018-09-11T08:47:07.525Z,3.10
2018-09-11T08:49:36.389Z,3.50
2018-09-11T08:52:06.564Z,3.47
2018-09-11T08:54:35.534Z,3.50
2018-09-11T08:57:04.331Z,3.57
2018-09-11T08:59:33.069Z,3.43
2018-09-11T09:02:01.857Z,3.63
2018-09-11T09:04:30.617Z,3.40
2018-09-11T09:06:59.604Z,3.10
2018-09-11T09:09:28.357Z,3.47
2018-09-11T09:11:57.155Z,3.67
2018-09-11T09:14:25.942Z,2.63
2018-09-11T09:16:54.837Z,3.67
2018-09-11T09:19:23.621Z,2.83
2018-09-11T09:21:52.409Z,3.30
2018-09-11T09:24:21.208Z,3.47
2018-09-11T09:26:50.003Z,4.00
2018-09-11T09:29:18.801Z,3.57
2018-09-11T09:31:47.534Z,3.07
2018-09-11T09:34:16.315Z,3.40
2018-09-11T09:36:45.192Z,3.77
2018-09-11T09:39:13.925Z,3.30
2018-09-11T09:41:42.681Z,3.50
2018-09-11T09:44:11.485Z,3.67
2018-09-11T09:46:41.130Z,3.53
2018-09-11T09:49:09.984Z,3.23
2018-09-11T09:51:39.916Z,3.63
2018-09-11T09:54:09.562Z,3.20
2018-09-11T09:56:39.121Z,3.90
2018-09-11T09:59:08.942Z,3.87
2018-09-11T10:01:43.293Z,4.23
2018-09-11T10:04:12.116Z,3.07
2018-09-11T10:06:40.881Z,4.60
2018-09-11T10:09:11.375Z,3.67
2018-09-11T10:11:40.598Z,3.90
2018-09-11T10:14:09.579Z,4.03
2018-09-11T10:16:38.421Z,3.90
2018-09-11T10:19:07.381Z,4.20
2018-09-11T10:21:36.167Z,3.73
2018-09-11T10:24:05.017Z,3.80
2018-09-11T10:26:33.856Z,3.97
2018-09-11T10:29:08.493Z,3.73
2018-09-11T10:31:37.324Z,3.67
2018-09-11T10:34:07.210Z,4.30
2018-09-11T10:36:36.214Z,3.73
2018-09-11T10:39:06.050Z,3.33
2018-09-11T10:41:34.809Z,4.20
2018-09-11T10:44:03.578Z,3.87
2018-09-11T10:46:32.506Z,3.83
2018-09-11T10:49:01.278Z,4.03
2018-09-11T10:51:30.085Z,4.10
2018-09-11T10:53:58.856Z,4.20
2018-09-11T10:56:27.869Z,4.10
2018-09-11T10:58:57.124Z,3.63
2018-09-11T11:01:25.892Z,3.93
2018-09-11T11:03:54.708Z,4.63
2018-09-11T11:06:23.542Z,4.30
2018-09-11T11:08:52.343Z,3.90
2018-09-11T11:11:21.161Z,4.47
2018-09-11T11:13:49.956Z,4.10
2018-09-11T11:16:18.780Z,4.20
2018-09-11T11:18:47.546Z,3.87
2018-09-11T11:21:16.792Z,3.63
2018-09-11T11:23:45.873Z,4.10
2018-09-11T11:26:14.776Z,3.60
2018-09-11T11:28:43.623Z,3.80
2018-09-11T11:31:12.409Z,3.80
2018-09-11T11:33:41.266Z,3.80
2018-09-11T11:36:10.160Z,3.70
2018-09-11T11:38:38.881Z,4.53
2018-09-11T11:41:07.635Z,3.90
2018-09-11T11:43:36.432Z,3.63
2018-09-11T11:46:05.262Z,3.53
2018-09-11T11:48:34.080Z,3.73
2018-09-11T11:51:02.869Z,4.00
2018-09-11T11:53:31.598Z,3.37
2018-09-11T11:56:00.564Z,3.20
2018-09-11T11:58:29.355Z,3.83
2018-09-11T12:03:50.782Z,3.33
2018-09-11T12:06:19.616Z,3.67
2018-09-11T12:08:48.369Z,3.10
2018-09-11T12:11:17.093Z,3.80
2018-09-11T12:13:45.962Z,4.00
2018-09-11T12:16:14.793Z,3.90
2018-09-11T12:18:43.529Z,3.90
2018-09-11T12:21:12.284Z,4.63
2018-09-11T12:23:41.214Z,4.17
2018-09-11T12:26:09.986Z,4.13
2018-09-11T12:28:38.788Z,3.60
2018-09-11T12:31:07.630Z,3.50
2018-09-11T12:33:36.416Z,3.50
2018-09-11T12:36:05.305Z,4.20
2018-09-11T12:38:34.092Z,3.50
2018-09-11T12:41:02.825Z,3.73
2018-09-11T12:43:31.624Z,3.53
2018-09-11T12:46:00.582Z,4.00
2018-09-11T12:48:29.320Z,4.10
2018-09-11T12:50:57.967Z,3.63
2018-09-11T12:53:27.012Z,3.50
2018-09-11T12:55:56.662Z,3.77
2018-09-11T12:58:25.556Z,3.47
2018-09-11T13:00:54.308Z,3.60
2018-09-11T13:03:23.164Z,3.70
2018-09-11T13:05:51.935Z,3.47
2018-09-11T13:08:20.692Z,3.43
2018-09-11T13:10:49.487Z,3.70
2018-09-11T13:13:18.242Z,3.90
2018-09-11T13:15:47.014Z,4.00
2018-09-11T13:18:15.829Z,3.40
2018-09-11T13:20:44.585Z,4.17
2018-09-11T13:23:13.429Z,3.67
2018-09-11T13:25:42.238Z,3.10
2018-09-11T13:28:11.145Z,3.70
2018-09-11T13:30:39.937Z,4.13
2018-09-11T13:33:08.805Z,3.33
2018-09-11T13:35:37.600Z,4.07
2018-09-11T13:38:06.407Z,3.87
2018-09-11T13:40:35.164Z,3.80
2018-09-11T13:43:04.081Z,3.87
2018-09-11T13:45:32.927Z,3.80
2018-09-11T13:48:01.740Z,4.07
2018-09-11T13:50:30.505Z,4.00
2018-09-11T13:52:59.365Z,3.87
2018-09-11T13:55:28.137Z,4.37
2018-09-11T14:03:46.247Z,3.87
2018-09-11T14:06:15.037Z,3.20
2018-09-11T14:08:43.844Z,3.40
2018-09-11T14:11:12.647Z,3.10
2018-09-11T14:13:41.559Z,3.70
2018-09-11T14:16:10.425Z,3.30
2018-09-11T14:18:39.436Z,3.37
2018-09-11T14:21:08.284Z,3.57
2018-09-11T14:23:37.055Z,3.63
2018-09-11T14:26:05.835Z,3.47
2018-09-11T14:28:34.725Z,3.87
2018-09-11T14:31:03.590Z,4.00
2018-09-11T14:33:32.366Z,3.90
2018-09-11T14:36:01.139Z,3.90
2018-09-11T14:38:29.949Z,3.13
2018-09-11T14:40:58.817Z,3.83
2018-09-11T14:43:27.590Z,3.60
2018-09-11T14:45:56.357Z,4.50
2018-09-11T14:48:25.115Z,4.10
2018-09-11T14:50:53.881Z,3.90
2018-09-11T14:53:22.641Z,4.10
2018-09-11T14:55:51.479Z,4.30
2018-09-11T15:01:13.183Z,3.80
2018-09-11T15:03:42.419Z,4.03
2018-09-11T15:06:11.213Z,4.73
2018-09-11T15:08:40.024Z,3.77
2018-09-11T15:11:08.902Z,4.10
2018-09-11T15:13:37.767Z,4.33
2018-09-11T15:16:06.761Z,4.20
2018-09-11T15:18:35.865Z,4.63
2018-09-11T15:21:05.253Z,4.23
2018-09-11T15:23:34.017Z,4.70
2018-09-11T15:26:03.797Z,4.40
2018-09-11T15:28:32.812Z,3.97
2018-09-11T15:31:01.630Z,4.07
2018-09-11T15:33:30.486Z,4.10
2018-09-11T15:35:59.378Z,3.90
2018-09-11T15:38:28.144Z,4.10
2018-09-11T15:40:57.027Z,4.20
2018-09-11T15:43:25.890Z,4.30
2018-09-11T15:45:54.647Z,4.70
2018-09-11T15:48:23.393Z,4.77
2018-09-11T15:50:52.457Z,4.83
2018-09-11T15:53:21.237Z,4.37
2018-09-11T15:55:50.029Z,4.23
2018-09-11T15:58:18.754Z,4.37
2018-09-11T16:00:47.687Z,4.70
2018-09-11T16:03:16.529Z,4.80
2018-09-11T16:05:45.417Z,4.40
2018-09-11T16:08:14.286Z,5.13
2018-09-11T16:10:43.146Z,4.40
2018-09-11T16:13:11.941Z,4.70
2018-09-11T16:15:40.722Z,4.83
2018-09-11T16:18:09.939Z,4.53
2018-09-11T16:20:38.833Z,4.47
2018-09-11T16:23:07.686Z,4.63
2018-09-11T16:25:36.448Z,4.60
2018-09-11T16:28:05.231Z,4.90
2018-09-11T16:30:34.025Z,4.97
2018-09-11T16:33:02.797Z,5.33
2018-09-11T16:35:31.557Z,5.00
2018-09-11T16:38:00.322Z,4.90
2018-09-11T16:40:29.219Z,4.30
2018-09-11T16:42:57.968Z,4.80
2018-09-11T16:45:26.717Z,4.60
2018-09-11T16:47:55.505Z,4.47
2018-09-11T16:50:24.340Z,4.33
2018-09-11T16:52:53.095Z,4.90
2018-09-11T16:55:21.841Z,5.20
2018-09-11T16:57:50.611Z,4.90
2018-09-11T17:00:19.611Z,4.60
2018-09-11T17:02:48.357Z,5.20
2018-09-11T17:05:17.096Z,5.10
2018-09-11T17:07:45.855Z,5.23
2018-09-11T17:10:14.820Z,4.77
2018-09-11T17:12:43.956Z,5.00
2018-09-11T17:15:12.724Z,4.93
2018-09-11T17:17:41.504Z,4.40
2018-09-11T17:20:11.046Z,4.93
2018-09-11T17:22:39.877Z,5.03
2018-09-11T17:25:08.678Z,4.90
2018-09-11T17:27:37.422Z,5.20
2018-09-11T17:30:06.294Z,4.53
2018-09-11T17:32:35.085Z,4.43
2018-09-11T17:35:03.872Z,4.70
2018-09-11T17:37:32.618Z,4.90
2018-09-11T17:40:01.468Z,4.53
2018-09-11T17:42:30.261Z,4.97
2018-09-11T17:44:59.043Z,3.97
2018-09-11T17:47:27.826Z,5.50
2018-09-11T17:49:56.701Z,4.70
2018-09-11T17:52:25.985Z,5.10
2018-09-11T17:54:54.773Z,4.93
2018-09-11T17:57:23.558Z,4.87
2018-09-11T17:59:52.359Z,4.50
2018-09-11T18:02:21.220Z,4.07
2018-09-11T18:04:50.001Z,4.40
2018-09-11T18:07:18.749Z,3.97
2018-09-11T18:09:47.559Z,4.70
2018-09-11T18:12:16.297Z,5.00
2018-09-11T18:14:45.041Z,4.53
2018-09-11T18:17:13.841Z,5.17
2018-09-11T18:19:42.742Z,5.40
2018-09-11T18:22:11.513Z,4.90
2018-09-11T18:24:40.328Z,5.00
2018-09-11T18:27:09.116Z,5.20
2018-09-11T18:29:37.961Z,5.33
2018-09-11T18:32:06.783Z,4.90
2018-09-11T18:34:35.518Z,5.20
2018-09-11T18:37:04.350Z,5.33
2018-09-11T18:39:33.125Z,5.53
2018-09-11T18:42:01.904Z,5.10
2018-09-11T18:44:30.680Z,5.93
2018-09-11T18:46:59.465Z,6.07
2018-09-11T18:49:28.390Z,6.27
2018-09-11T18:51:57.242Z,5.87
2018-09-11T18:54:25.935Z,6.70
2018-09-11T18:56:54.688Z,5.43
2018-09-11T18:59:23.646Z,6.20
2018-09-11T19:01:52.491Z,5.50
2018-09-11T19:04:21.261Z,5.17
2018-09-11T19:06:50.021Z,5.87
2018-09-11T19:09:18.844Z,5.23
2018-09-11T19:11:47.663Z,5.07
2018-09-11T19:14:16.473Z,5.90
2018-09-11T19:16:45.307Z,5.80
2018-09-11T19:19:14.118Z,5.30
2018-09-11T19:21:42.889Z,5.60
2018-09-11T19:24:11.698Z,5.67
2018-09-11T19:26:40.548Z,6.13
2018-09-11T19:29:09.312Z,6.10
2018-09-11T19:31:38.078Z,5.67
2018-09-11T19:34:07.175Z,6.00
2018-09-11T19:36:35.961Z,5.80
2018-09-11T19:39:06.207Z,6.10
2018-09-11T19:41:34.992Z,6.95
2018-09-11T19:44:04.004Z,6.83
2018-09-11T19:46:32.765Z,6.60
2018-09-11T19:49:01.845Z,6.83
2018-09-11T19:51:30.642Z,7.33
2018-09-11T19:53:59.524Z,7.20
2018-09-11T19:56:28.341Z,7.07
2018-09-11T19:58:57.173Z,7.10
2018-09-11T20:01:25.915Z,6.90
2018-09-11T20:03:54.836Z,6.50
2018-09-11T20:06:23.656Z,6.57
2018-09-11T20:08:52.457Z,5.93
2018-09-11T20:11:21.221Z,6.60
2018-09-11T20:13:50.321Z,7.20
2018-09-11T20:16:19.337Z,6.97
2018-09-11T20:18:48.126Z,6.90
2018-09-11T20:21:16.895Z,7.53
2018-09-11T20:23:45.733Z,6.87
2018-09-11T20:26:14.534Z,6.10
2018-09-11T20:28:43.288Z,7.10
2018-09-11T20:31:12.091Z,6.87
2018-09-11T20:33:40.878Z,6.93
2018-09-11T20:36:09.686Z,6.07
2018-09-11T20:38:38.471Z,6.10
2018-09-11T20:41:07.293Z,6.27
2018-09-11T20:43:36.380Z,6.33
2018-09-11T20:46:05.409Z,6.80
2018-09-11T20:48:34.218Z,6.60
2018-09-11T20:51:03.037Z,7.30
2018-09-11T20:53:31.932Z,6.70
2018-09-11T20:56:00.798Z,6.37
2018-09-11T20:58:29.546Z,7.83
2018-09-11T21:00:58.334Z,6.77
2018-09-11T21:03:27.133Z,6.67
2018-09-11T21:05:55.911Z,7.17
2018-09-11T21:08:24.700Z,7.80
2018-09-11T21:10:53.508Z,7.10
2018-09-11T21:13:22.311Z,7.07
2018-09-11T21:15:51.069Z,8.17
2018-09-11T21:21:13.597Z,7.80
2018-09-11T21:23:42.357Z,7.60
2018-09-11T21:26:11.143Z,8.63
2018-09-11T21:28:39.961Z,7.80
2018-09-11T21:31:08.788Z,7.90
2018-09-11T21:33:37.547Z,8.50
2018-09-11T21:36:06.557Z,7.27
2018-09-11T21:38:35.302Z,7.83
2018-09-11T21:41:04.064Z,8.88
2018-09-11T21:43:32.840Z,7.93
2018-09-11T21:46:01.632Z,8.33
2018-09-11T21:48:30.406Z,8.37
2018-09-11T21:50:59.161Z,8.00
2018-09-11T21:53:27.535Z,7.40
2018-09-11T21:55:56.289Z,8.23
2018-09-11T21:58:25.072Z,7.40
2018-09-11T22:00:59.208Z,7.40
2018-09-11T22:03:27.996Z,8.10
2018-09-11T22:05:56.753Z,8.37
2018-09-11T22:08:25.508Z,7.43
2018-09-11T22:10:54.266Z,7.80
2018-09-11T22:13:23.033Z,7.87
2018-09-11T22:15:51.800Z,7.90
2018-09-11T22:18:20.620Z,7.87
2018-09-11T22:20:49.380Z,7.73
2018-09-11T22:23:18.180Z,6.97
2018-09-11T22:25:46.957Z,7.47
2018-09-11T22:28:15.805Z,7.57
2018-09-11T22:30:44.567Z,8.33
2018-09-11T22:33:13.381Z,7.80
2018-09-11T22:35:42.337Z,7.80
2018-09-11T22:38:11.113Z,7.63
2018-09-11T22:40:39.900Z,8.33
2018-09-11T22:43:08.715Z,8.10
2018-09-11T22:45:37.537Z,8.30
2018-09-11T22:48:06.525Z,7.87
2018-09-11T22:50:35.340Z,8.43
2018-09-11T22:53:04.092Z,7.67
2018-09-11T22:55:32.824Z,7.93
2018-09-11T22:58:01.609Z,7.83
2018-09-11T23:00:30.392Z,7.97
2018-09-11T23:02:59.155Z,8.10
2018-09-11T23:05:27.890Z,8.07
2018-09-11T23:07:56.655Z,8.00
2018-09-11T23:10:25.426Z,8.13
2018-09-11T23:12:54.171Z,7.87
2018-09-11T23:15:22.924Z,7.90
2018-09-11T23:17:51.693Z,8.63
2018-09-11T23:20:20.570Z,8.23
2018-09-11T23:22:49.349Z,7.90
2018-09-11T23:25:18.105Z,8.30
2018-09-11T23:27:46.902Z,7.60
2018-09-11T23:30:15.697Z,7.77
2018-09-11T23:32:44.452Z,7.90
2018-09-11T23:35:13.284Z,8.07
2018-09-11T23:37:42.072Z,8.43
2018-09-11T23:40:10.976Z,8.23
2018-09-11T23:42:39.721Z,8.23
2018-09-11T23:45:08.645Z,8.00
2018-09-11T23:47:37.481Z,7.53
2018-09-11T23:50:06.942Z,7.63
2018-09-11T23:52:35.689Z,8.67
2018-09-11T23:55:04.606Z,6.93
2018-09-11T23:57:33.369Z,8.40
